Time;durP1;ratioP1;P1;durP2;ratioP2;P2;SDS_P1;SDS_P2;PMS_P1;PMS_P2;Temp;Humidity;BMP_temperature;BMP_pressure;BME280_temperature;BME280_humidity;BME280_pressure;Samples;Min_cycle;Max_cycle;Signal;HPM_P1;HPM_P2
2023/06/17 00:02:17;;;;;;;7.95;4.10;;;19.60;64.00;;;;;;5021176;28;20029;-75
2023/06/17 00:04:43;;;;;;;7.82;4.35;;;19.60;64.30;;;;;;5020732;28;20075;-75
2023/06/17 00:07:09;;;;;;;5.97;3.42;;;19.50;64.40;;;;;;5025123;28;20025;-75
2023/06/17 00:09:35;;;;;;;7.68;3.63;;;19.50;64.50;;;;;;5037541;28;20022;-75
2023/06/17 00:12:02;;;;;;;8.25;4.25;;;19.50;64.80;;;;;;5016314;28;20399;-76
2023/06/17 00:14:28;;;;;;;6.28;3.85;;;19.40;64.80;;;;;;5014787;28;20441;-76
2023/06/17 00:16:54;;;;;;;6.15;3.70;;;19.40;64.90;;;;;;5034577;28;20026;-77
2023/06/17 00:19:20;;;;;;;6.40;3.75;;;19.30;65.10;;;;;;5015711;28;20021;-75
2023/06/17 00:21:52;;;;;;;9.65;3.80;;;19.30;65.30;;;;;;5033673;28;20025;-76
2023/06/17 00:24:19;;;;;;;5.70;3.50;;;19.30;65.50;;;;;;5032855;28;20018;-76
2023/06/17 00:26:46;;;;;;;8.82;4.00;;;19.20;65.80;;;;;;5015491;28;20026;-75
2023/06/17 00:29:15;;;;;;;6.68;4.53;;;19.10;66.20;;;;;;5015516;28;20630;-75
2023/06/17 00:31:41;;;;;;;7.35;5.03;;;19.10;66.50;;;;;;4995315;28;20049;-75
2023/06/17 00:34:06;;;;;;;7.38;4.47;;;19.00;66.70;;;;;;5011902;28;20026;-75
2023/06/17 00:36:32;;;;;;;8.45;4.10;;;19.00;67.00;;;;;;5013224;28;20088;-75
2023/06/17 00:38:58;;;;;;;6.43;4.20;;;19.00;67.30;;;;;;4996728;28;20034;-76
2023/06/17 00:41:24;;;;;;;5.75;3.97;;;18.90;67.60;;;;;;4994510;28;20029;-74
2023/06/17 00:43:49;;;;;;;7.95;4.53;;;18.80;67.80;;;;;;5011719;28;20595;-75
2023/06/17 00:46:36;;;;;;;6.97;4.80;;;18.80;68.10;;;;;;5011625;28;20033;-75
2023/06/17 00:49:04;;;;;;;6.80;3.75;;;18.80;68.40;;;;;;4993842;28;20029;-74
2023/06/17 00:51:34;;;;;;;10.10;4.60;;;18.80;68.40;;;;;;5011172;28;20113;-75
2023/06/17 00:54:01;;;;;;;5.75;3.83;;;18.70;68.50;;;;;;5029115;28;20076;-74
2023/06/17 00:56:27;;;;;;;8.90;4.70;;;18.70;68.60;;;;;;5017246;28;20071;-75
2023/06/17 00:58:57;;;;;;;6.13;4.20;;;18.70;68.70;;;;;;5026357;28;20036;-75
2023/06/17 01:01:24;;;;;;;6.45;4.60;;;18.70;68.80;;;;;;5034523;28;20017;-75
2023/06/17 01:03:52;;;;;;;9.45;4.93;;;18.60;69.00;;;;;;5012789;28;20022;-75
2023/06/17 01:06:35;;;;;;;7.10;4.20;;;18.60;69.40;;;;;;5033149;28;20033;-74
2023/06/17 01:09:05;;;;;;;8.10;5.25;;;18.50;69.60;;;;;;5018474;28;20502;-75
2023/06/17 01:11:32;;;;;;;9.05;5.03;;;18.50;70.10;;;;;;5038375;28;20052;-74
2023/06/17 01:13:58;;;;;;;9.57;5.00;;;18.50;70.40;;;;;;5024146;28;20025;-76
2023/06/17 01:16:25;;;;;;;6.30;4.40;;;18.40;70.50;;;;;;5044309;28;20467;-74
2023/06/17 01:18:53;;;;;;;10.13;5.18;;;18.40;70.70;;;;;;5043092;28;20022;-74
2023/06/17 01:21:22;;;;;;;8.65;4.93;;;18.40;70.90;;;;;;5038501;28;20021;-75
2023/06/17 01:23:53;;;;;;;6.88;4.75;;;18.40;71.00;;;;;;5040143;28;20099;-73
2023/06/17 01:26:21;;;;;;;8.90;5.60;;;18.30;71.50;;;;;;5039376;28;20033;-73
2023/06/17 01:28:48;;;;;;;6.93;4.85;;;18.30;71.80;;;;;;5021053;28;20030;-72
2023/06/17 01:31:18;;;;;;;6.88;5.32;;;18.30;71.80;;;;;;5037217;28;20494;-74
2023/06/17 01:33:46;;;;;;;7.88;5.97;;;18.20;71.80;;;;;;5058042;28;20021;-74
2023/06/17 01:36:34;;;;;;;8.15;6.20;;;18.20;72.20;;;;;;5040845;28;20051;-75
2023/06/17 01:39:03;;;;;;;11.85;6.28;;;18.20;72.70;;;;;;5056365;28;20029;-74
2023/06/17 01:41:42;;;;;;;10.30;6.28;;;18.10;73.00;;;;;;5058119;28;20552;-73
2023/06/17 01:44:10;;;;;;;7.85;5.25;;;18.10;73.40;;;;;;5076566;28;20017;-74
2023/06/17 01:46:36;;;;;;;9.18;6.75;;;18.10;73.50;;;;;;5079478;28;20070;-73
2023/06/17 01:49:02;;;;;;;9.05;5.65;;;18.00;73.60;;;;;;5065176;28;20024;-74
2023/06/17 01:51:28;;;;;;;8.93;5.82;;;18.00;73.80;;;;;;5056400;28;20509;-74
2023/06/17 01:53:54;;;;;;;10.23;6.10;;;17.90;74.00;;;;;;5060897;28;20017;-72
2023/06/17 01:56:19;;;;;;;9.57;5.57;;;17.80;74.20;;;;;;5063507;28;20044;-73
2023/06/17 01:58:45;;;;;;;8.10;5.60;;;17.80;74.40;;;;;;5063072;28;20565;-74
2023/06/17 02:01:11;;;;;;;8.20;5.35;;;17.80;74.50;;;;;;5045318;28;20045;-75
2023/06/17 02:03:38;;;;;;;18.70;7.35;;;17.80;74.40;;;;;;5061210;28;20059;-74
2023/06/17 02:06:03;;;;;;;8.10;5.85;;;17.80;74.60;;;;;;5046171;28;20036;-74
2023/06/17 02:08:34;;;;;;;9.07;5.50;;;17.80;75.00;;;;;;5064087;28;20021;-73
2023/06/17 02:11:00;;;;;;;12.52;6.05;;;17.80;75.30;;;;;;5046926;28;20031;-74
2023/06/17 02:13:26;;;;;;;9.82;5.97;;;17.80;75.30;;;;;;5064076;28;20021;-74
2023/06/17 02:15:51;;;;;;;10.20;6.28;;;17.70;75.40;;;;;;5064068;28;20021;-75
2023/06/17 02:18:18;;;;;;;10.30;6.53;;;17.70;75.60;;;;;;5063173;28;20119;-74
2023/06/17 02:20:52;;;;;;;8.60;6.63;;;17.70;75.90;;;;;;5063754;28;20483;-73
2023/06/17 02:23:17;;;;;;;10.52;6.30;;;17.60;76.10;;;;;;5046565;28;20340;-75
2023/06/17 02:25:43;;;;;;;8.15;5.60;;;17.70;76.30;;;;;;5046273;28;20052;-75
2023/06/17 02:28:09;;;;;;;8.13;6.60;;;17.60;76.30;;;;;;5062827;28;20060;-74
2023/06/17 02:30:35;;;;;;;10.57;7.30;;;17.60;76.70;;;;;;5063765;28;20104;-74
2023/06/17 02:33:00;;;;;;;9.23;6.90;;;17.60;76.70;;;;;;5063250;28;20588;-73
2023/06/17 02:35:35;;;;;;;10.02;7.30;;;17.60;77.00;;;;;;5063820;28;20028;-74
2023/06/17 02:38:03;;;;;;;9.32;6.97;;;17.60;77.20;;;;;;5068347;28;20052;-73
2023/06/17 02:40:30;;;;;;;11.63;6.78;;;17.50;77.40;;;;;;5073796;28;20146;-74
2023/06/17 02:42:57;;;;;;;9.43;6.93;;;17.50;77.70;;;;;;5058663;28;20032;-73
2023/06/17 02:45:23;;;;;;;9.57;7.07;;;17.50;77.90;;;;;;5091023;28;20048;-74
2023/06/17 02:47:50;;;;;;;11.88;7.00;;;17.50;78.20;;;;;;5087386;28;20086;-74
2023/06/17 02:50:21;;;;;;;10.60;7.75;;;17.50;78.30;;;;;;5084543;28;20055;-74
2023/06/17 02:52:47;;;;;;;9.93;7.57;;;17.50;78.30;;;;;;5069768;28;20035;-74
2023/06/17 02:55:15;;;;;;;12.45;8.38;;;17.50;78.40;;;;;;5046374;28;20051;-74
2023/06/17 02:57:41;;;;;;;11.35;8.35;;;17.50;78.40;;;;;;5048106;28;20048;-74
2023/06/17 03:00:08;;;;;;;12.85;7.82;;;17.50;78.50;;;;;;5046668;28;20028;-73
2023/06/17 03:02:34;;;;;;;11.73;8.55;;;17.40;78.80;;;;;;5065228;28;20124;-74
2023/06/17 03:05:00;;;;;;;11.30;8.43;;;17.40;78.90;;;;;;5065303;28;20094;-73
2023/06/17 03:07:29;;;;;;;11.45;8.77;;;17.40;79.00;;;;;;5066311;28;20052;-75
2023/06/17 03:09:54;;;;;;;11.70;9.20;;;17.40;79.10;;;;;;5047696;28;20031;-74
2023/06/17 03:12:20;;;;;;;11.05;9.20;;;17.40;79.30;;;;;;5066600;28;20037;-74
2023/06/17 03:14:47;;;;;;;10.25;8.80;;;17.30;79.10;;;;;;5065348;28;20032;-75
2023/06/17 03:17:13;;;;;;;13.18;9.05;;;17.30;79.30;;;;;;5065010;28;20028;-74
2023/06/17 03:19:38;;;;;;;11.68;9.57;;;17.30;79.30;;;;;;5064336;28;20025;-73
2023/06/17 03:22:04;;;;;;;12.25;8.70;;;17.30;79.30;;;;;;5064436;28;20037;-74
2023/06/17 03:24:30;;;;;;;14.75;9.20;;;17.30;79.60;;;;;;5047656;28;20082;-73
2023/06/17 03:26:58;;;;;;;12.48;8.95;;;17.20;79.90;;;;;;5057765;28;20026;-73
2023/06/17 03:29:23;;;;;;;13.77;8.45;;;17.20;80.00;;;;;;5045415;28;20085;-74
2023/06/17 03:31:50;;;;;;;14.55;9.57;;;17.20;80.20;;;;;;5062802;28;20410;-75
2023/06/17 03:34:15;;;;;;;11.13;8.90;;;17.20;80.30;;;;;;5062587;28;20025;-73
2023/06/17 03:36:42;;;;;;;11.63;8.90;;;17.10;80.50;;;;;;5043684;28;20088;-74
2023/06/17 03:39:07;;;;;;;13.05;9.98;;;17.10;80.60;;;;;;5059736;28;20437;-73
2023/06/17 03:41:33;;;;;;;16.33;9.60;;;17.00;80.60;;;;;;5057873;28;20021;-74
2023/06/17 03:44:00;;;;;;;11.98;8.93;;;17.10;80.80;;;;;;5055191;28;20032;-75
2023/06/17 03:46:26;;;;;;;11.40;8.20;;;17.00;80.90;;;;;;5076672;28;20077;-75
2023/06/17 03:48:52;;;;;;;11.93;8.88;;;17.00;80.90;;;;;;5076368;28;20021;-73
2023/06/17 03:51:18;;;;;;;11.00;8.48;;;17.10;81.00;;;;;;5076464;28;20029;-74
2023/06/17 03:53:44;;;;;;;10.50;9.05;;;17.10;81.10;;;;;;5075634;28;20402;-73
2023/06/17 03:56:10;;;;;;;12.63;8.88;;;17.10;81.10;;;;;;5074283;28;20074;-76
2023/06/17 03:58:35;;;;;;;11.48;8.48;;;17.10;81.10;;;;;;5054420;28;20021;-74
2023/06/17 04:01:01;;;;;;;12.50;8.20;;;17.10;81.00;;;;;;5055918;28;20578;-73
2023/06/17 04:03:27;;;;;;;11.35;8.88;;;17.10;81.00;;;;;;5054807;28;20039;-74
2023/06/17 04:05:52;;;;;;;10.75;8.30;;;17.10;81.20;;;;;;5055311;28;20463;-73
2023/06/17 04:08:19;;;;;;;11.68;8.30;;;17.10;81.20;;;;;;5053852;28;20029;-75
2023/06/17 04:10:47;;;;;;;10.80;8.25;;;17.20;81.40;;;;;;5055454;28;20446;-74
2023/06/17 04:13:14;;;;;;;13.55;8.80;;;17.20;81.40;;;;;;5054543;28;20040;-73
2023/06/17 04:15:39;;;;;;;10.57;8.63;;;17.20;81.40;;;;;;5036334;28;20033;-74
2023/06/17 04:18:05;;;;;;;12.30;8.85;;;17.20;81.40;;;;;;5055143;28;20055;-75
2023/06/17 04:20:34;;;;;;;9.50;7.97;;;17.30;81.60;;;;;;5054667;28;20017;-76
2023/06/17 04:23:00;;;;;;;12.15;9.15;;;17.30;81.60;;;;;;5035323;28;20388;-74
2023/06/17 04:25:25;;;;;;;10.30;8.27;;;17.30;81.50;;;;;;5051038;28;20051;-74
2023/06/17 04:27:53;;;;;;;9.95;8.10;;;17.30;81.40;;;;;;5051689;28;20029;-73
2023/06/17 04:30:19;;;;;;;10.98;7.93;;;17.30;81.30;;;;;;5051773;28;20465;-74
2023/06/17 04:32:45;;;;;;;12.43;8.70;;;17.40;81.30;;;;;;5038205;28;20520;-74
2023/06/17 04:35:11;;;;;;;10.98;8.40;;;17.50;81.20;;;;;;5050236;28;20387;-74
2023/06/17 04:37:40;;;;;;;12.80;8.48;;;17.50;81.20;;;;;;5050922;28;20021;-74
2023/06/17 04:40:10;;;;;;;10.95;8.73;;;17.60;81.20;;;;;;5050657;28;20082;-73
2023/06/17 04:42:36;;;;;;;13.82;8.82;;;17.70;81.10;;;;;;5052083;28;20060;-74
2023/06/17 04:45:02;;;;;;;11.82;9.00;;;17.80;81.00;;;;;;5049940;28;20356;-74
2023/06/17 04:47:29;;;;;;;11.25;9.25;;;17.80;81.00;;;;;;5027388;28;20538;-73
2023/06/17 04:49:55;;;;;;;12.75;8.88;;;17.90;80.90;;;;;;5040966;28;20017;-74
2023/06/17 04:52:24;;;;;;;13.52;10.45;;;18.10;80.80;;;;;;5039260;28;20137;-74
2023/06/17 04:54:51;;;;;;;13.63;10.00;;;18.20;80.70;;;;;;5019747;28;20126;-74
2023/06/17 04:57:20;;;;;;;14.63;10.45;;;18.20;80.70;;;;;;5043228;28;20018;-75
2023/06/17 04:59:45;;;;;;;14.10;10.57;;;18.30;80.80;;;;;;5039596;28;20013;-73
2023/06/17 05:02:13;;;;;;;14.13;12.20;;;18.40;81.10;;;;;;5023925;28;20386;-74
2023/06/17 05:04:39;;;;;;;18.00;11.10;;;18.50;81.20;;;;;;5022594;28;20029;-75
2023/06/17 05:07:04;;;;;;;17.00;12.52;;;18.60;81.00;;;;;;5043591;28;20051;-74
2023/06/17 05:09:30;;;;;;;14.05;11.25;;;18.60;80.90;;;;;;5040945;28;20031;-74
2023/06/17 05:11:56;;;;;;;19.98;13.98;;;;;;;;;;5041061;28;20395;-74
2023/06/17 05:14:23;;;;;;;14.45;11.48;;;;;;;;;;5040085;28;20155;-74
2023/06/17 05:16:49;;;;;;;16.67;13.65;;;;;;;;;;5043089;28;20048;-74
2023/06/17 05:19:15;;;;;;;15.13;12.13;;;;;;;;;;5032760;28;20036;-74
2023/06/17 05:21:41;;;;;;;13.70;11.38;;;;;;;;;;5047289;28;20033;-73
2023/06/17 05:24:07;;;;;;;14.75;11.85;;;;;;;;;;5043301;28;20028;-75
2023/06/17 05:26:33;;;;;;;13.48;11.30;;;;;;;;;;5024497;28;20100;-73
2023/06/17 05:28:59;;;;;;;15.23;12.23;;;;;;;;;;5058159;28;20012;-73
2023/06/17 05:31:25;;;;;;;15.70;11.60;;;;;;;;;;5058060;28;20017;-74
2023/06/17 05:33:51;;;;;;;14.68;12.10;;;;;;;;;;5032298;28;20056;-74
2023/06/17 05:36:17;;;;;;;13.48;12.00;;;;;;;;;;5029348;28;20025;-74
2023/06/17 05:38:44;;;;;;;14.52;10.70;;;;;;;;;;5019299;28;21098;-74
2023/06/17 05:41:11;;;;;;;19.15;13.57;;;;;;;;;;5029735;28;20026;-72
2023/06/17 05:43:37;;;;;;;14.93;10.52;;;;;;;;;;5027956;28;20048;-74
2023/06/17 05:46:03;;;;;;;16.00;12.18;;;;;;;;;;5024870;28;20548;-74
2023/06/17 05:48:29;;;;;;;12.75;10.52;;;;;;;;;;5022699;28;20022;-74
2023/06/17 05:50:55;;;;;;;13.25;11.07;;;;;;;;;;5023260;28;20029;-73
2023/06/17 05:53:21;;;;;;;16.50;12.25;;;;;;;;;;5018178;28;20056;-74
2023/06/17 05:55:48;;;;;;;15.38;12.93;;;;;;;;;;5030085;28;20025;-72
2023/06/17 05:58:16;;;;;;;10.95;8.98;;;;;;;;;;5032567;28;20030;-73
2023/06/17 06:00:42;;;;;;;12.60;10.70;;;;;;;;;;5032659;28;20049;-73
2023/06/17 06:03:08;;;;;;;11.38;8.38;;;;;;;;;;5031354;28;20041;-73
2023/06/17 06:05:35;;;;;;;15.70;10.60;;;;;;;;;;5031659;28;20030;-72
2023/06/17 06:08:01;;;;;;;13.82;9.30;;;;;;;;;;5012528;28;20018;-73
2023/06/17 06:10:28;;;;;;;12.25;9.85;;;;;;;;;;5032212;28;20057;-74
2023/06/17 06:12:54;;;;;;;11.57;8.95;;;;;;;;;;5033226;28;20035;-72
2023/06/17 06:15:20;;;;;;;12.50;10.05;;;;;;;;;;5010000;28;20026;-73
2023/06/17 06:17:46;;;;;;;13.43;10.93;;;;;;;;;;5015907;28;20049;-72
2023/06/17 06:20:12;;;;;;;13.45;10.90;;;;;;;;;;5032038;28;20052;-73
2023/06/17 06:22:38;;;;;;;12.60;9.60;;;;;;;;;;5031594;28;20168;-73
2023/06/17 06:25:05;;;;;;;13.60;10.07;;;;;;;;;;5014560;28;20029;-73
2023/06/17 06:27:31;;;;;;;14.10;10.35;;;;;;;;;;5031284;28;20047;-73
2023/06/17 06:29:57;;;;;;;10.57;8.30;;;;;;;;;;5024689;28;20022;-72
2023/06/17 06:32:23;;;;;;;12.50;7.47;;;;;;;;;;5026997;28;20075;-73
2023/06/17 06:34:50;;;;;;;9.27;7.28;;;;;;;;;;5028448;28;20053;-72
2023/06/17 06:37:16;;;;;;;10.95;7.88;;;;;;;;;;5029296;28;20022;-74
2023/06/17 06:39:46;;;;;;;8.98;7.00;;;;;;;;;;5032726;28;20041;-73
2023/06/17 06:42:12;;;;;;;9.57;5.88;;;;;;;;;;5019105;28;20037;-73
2023/06/17 06:44:58;;;;;;;8.25;6.13;;;;;;;;;;5035511;28;20104;-74
2023/06/17 06:47:29;;;;;;;10.40;6.38;;;;;;;;;;5035605;28;20026;-73
2023/06/17 06:49:56;;;;;;;10.30;6.18;;;;;;;;;;5035803;28;20471;-73
2023/06/17 06:52:22;;;;;;;7.57;5.25;;;;;;;;;;5035941;28;20025;-73
2023/06/17 06:54:48;;;;;;;7.45;5.68;;;;;;;;;;5034570;28;20013;-74
2023/06/17 06:57:24;;;;;;;;;;;;;;;;;;;;;
2023/06/17 06:59:51;;;;;;;6.80;4.70;;;;;;;;;;5033140;28;20037;-73
2023/06/17 07:02:17;;;;;;;11.32;5.50;;;;;;;;;;5018860;28;20044;-73
2023/06/17 07:04:44;;;;;;;9.00;5.25;;;;;;;;;;5034658;28;20406;-74
2023/06/17 07:07:10;;;;;;;6.18;3.90;;;;;;;;;;5037073;28;20052;-74
2023/06/17 07:09:36;;;;;;;7.90;4.18;;;;;;;;;;5034778;28;20457;-73
2023/06/17 07:12:02;;;;;;;12.52;5.03;;;;;;;;;;5033963;28;20120;-73
2023/06/17 07:14:28;;;;;;;8.20;4.85;;;;;;;;;;5035196;28;20095;-74
2023/06/17 07:16:54;;;;;;;9.23;5.22;;;;;;;;;;5024646;28;20030;-74
2023/06/17 07:19:20;;;;;;;7.93;4.55;;;;;;;;;;5038938;28;20090;-74
2023/06/17 07:21:48;;;;;;;7.47;4.50;;;;;;;;;;5033593;28;20072;-73
2023/06/17 07:24:15;;;;;;;7.60;4.70;;;24.00;55.50;;;;;;5034007;28;20033;-74
2023/06/17 07:26:40;;;;;;;8.43;4.28;;;24.00;56.20;;;;;;5032239;28;20025;-73
2023/06/17 07:29:06;;;;;;;6.05;4.30;;;24.00;56.10;;;;;;5031019;28;20104;-73
2023/06/17 07:31:31;;;;;;;7.57;4.07;;;24.10;55.90;;;;;;5012810;28;20118;-72
2023/06/17 07:33:57;;;;;;;6.47;3.90;;;24.10;55.70;;;;;;5012145;28;20045;-72
2023/06/17 07:36:23;;;;;;;8.68;3.88;;;24.00;55.30;;;;;;5012273;28;20475;-73
2023/06/17 07:38:52;;;;;;;4.82;3.00;;;24.00;56.30;;;;;;5008940;28;20026;-74
2023/06/17 07:41:18;;;;;;;6.82;3.20;;;24.20;56.60;;;;;;5029205;28;20060;-73
2023/06/17 07:43:44;;;;;;;5.00;3.50;;;24.50;56.60;;;;;;5044354;28;20086;-73
2023/06/17 07:46:15;;;;;;;6.57;4.00;;;24.60;54.80;;;;;;5050916;28;20056;-74
2023/06/17 07:48:41;;;;;;;4.93;3.33;;;24.70;53.10;;;;;;5051298;28;20025;-73
2023/06/17 07:51:07;;;;;;;6.80;3.28;;;24.70;53.50;;;;;;5035483;28;20071;-72
2023/06/17 07:53:32;;;;;;;7.25;4.03;;;24.90;54.20;;;;;;5012943;28;20487;-72
2023/06/17 07:55:58;;;;;;;6.82;3.47;;;25.20;52.10;;;;;;5031046;28;20017;-72
2023/06/17 07:58:24;;;;;;;5.55;2.88;;;25.20;51.10;;;;;;5030966;28;20470;-73
2023/06/17 08:00:49;;;;;;;6.35;3.67;;;25.20;50.00;;;;;;5031391;28;20030;-72
2023/06/17 08:03:15;;;;;;;5.88;3.60;;;25.30;50.20;;;;;;5030587;28;20691;-73
2023/06/17 08:05:40;;;;;;;7.00;4.03;;;25.40;50.80;;;;;;5031397;28;20082;-73
2023/06/17 08:08:06;;;;;;;8.25;3.83;;;25.50;49.20;;;;;;5031078;28;20092;-73
2023/06/17 08:10:32;;;;;;;7.53;4.05;;;25.50;50.00;;;;;;5031969;28;20024;-76
2023/06/17 08:12:58;;;;;;;6.78;3.55;;;25.60;49.30;;;;;;5031705;28;20502;-73
2023/06/17 08:15:23;;;;;;;10.38;3.60;;;25.60;48.90;;;;;;5029227;28;20025;-74
2023/06/17 08:17:50;;;;;;;4.57;2.90;;;25.50;48.80;;;;;;5030996;28;20029;-76
2023/06/17 08:20:16;;;;;;;6.03;3.90;;;25.60;48.90;;;;;;5013368;28;20022;-73
2023/06/17 08:22:42;;;;;;;5.97;3.33;;;25.60;47.90;;;;;;5029971;28;20531;-74
2023/06/17 08:25:08;;;;;;;6.30;3.35;;;25.70;49.20;;;;;;5030992;28;20037;-75
2023/06/17 08:27:34;;;;;;;6.75;3.53;;;25.70;47.90;;;;;;5029730;28;20107;-73
2023/06/17 08:29:59;;;;;;;5.90;3.35;;;25.80;47.70;;;;;;5021858;28;20058;-75
2023/06/17 08:32:25;;;;;;;5.68;3.75;;;26.00;48.00;;;;;;5028901;28;20149;-74
2023/06/17 08:34:51;;;;;;;5.25;3.22;;;26.00;45.80;;;;;;5039916;28;20025;-75
2023/06/17 08:37:16;;;;;;;7.43;3.63;;;26.00;46.50;;;;;;5040536;28;20087;-78
2023/06/17 08:39:42;;;;;;;4.75;3.35;;;26.10;46.50;;;;;;5022260;28;20082;-72
2023/06/17 08:42:08;;;;;;;6.18;3.50;;;26.10;46.30;;;;;;5048985;28;20487;-75
2023/06/17 08:44:38;;;;;;;4.18;2.63;;;26.20;45.80;;;;;;5048743;28;20028;-72
2023/06/17 08:47:05;;;;;;;5.57;3.13;;;26.50;47.30;;;;;;5050280;28;20043;-74
2023/06/17 08:49:31;;;;;;;6.40;3.80;;;26.50;44.40;;;;;;5049282;28;20036;-71
2023/06/17 08:52:02;;;;;;;7.28;3.80;;;26.60;45.20;;;;;;5046920;28;20471;-71
2023/06/17 08:54:28;;;;;;;5.80;3.58;;;26.70;43.90;;;;;;5049342;28;20099;-70
2023/06/17 08:56:54;;;;;;;9.00;3.63;;;26.70;43.60;;;;;;5051075;28;20029;-76
2023/06/17 08:59:20;;;;;;;5.13;3.55;;;26.80;44.00;;;;;;5049426;28;20083;-77
2023/06/17 09:01:47;;;;;;;6.03;3.00;;;27.00;47.40;;;;;;5028818;28;20041;-77
2023/06/17 09:04:14;;;;;;;6.40;2.83;;;27.20;46.30;;;;;;5043942;28;20033;-77
2023/06/17 09:06:40;;;;;;;5.82;3.63;;;27.50;44.10;;;;;;5048063;28;20117;-77
2023/06/17 09:09:05;;;;;;;6.35;3.83;;;27.80;43.90;;;;;;5048367;28;20104;-76
2023/06/17 09:11:32;;;;;;;10.30;4.20;;;28.00;44.90;;;;;;5030591;28;20017;-78
2023/06/17 09:13:59;;;;;;;13.05;4.50;;;28.20;41.30;;;;;;5030029;28;20029;-76
2023/06/17 09:16:34;;;;;;;6.00;3.83;;;28.20;40.50;;;;;;5050157;28;20059;-76
2023/06/17 09:19:04;;;;;;;5.80;3.17;;;28.10;40.40;;;;;;5046178;28;20081;-76
2023/06/17 09:21:31;;;;;;;7.82;3.28;;;28.10;40.30;;;;;;5048818;28;20467;-74
2023/06/17 09:24:01;;;;;;;7.22;3.50;;;28.10;40.70;;;;;;5049032;28;20065;-74
2023/06/17 09:26:32;;;;;;;7.57;3.63;;;28.30;41.20;;;;;;5051253;28;20492;-77
2023/06/17 09:29:07;;;;;;;11.05;4.03;;;28.50;39.80;;;;;;5049892;28;20029;-78
2023/06/17 09:31:50;;;;;;;8.30;3.40;;;28.70;39.70;;;;;;5015406;28;20024;-78
2023/06/17 09:34:22;;;;;;;6.00;3.60;;;28.90;39.50;;;;;;5005454;28;20026;-80
2023/06/17 09:37:00;;;;;;;8.10;3.30;;;29.20;42.70;;;;;;5024383;28;20089;-78
2023/06/17 09:39:31;;;;;;;7.60;3.70;;;29.40;40.90;;;;;;5018151;28;20028;-78
2023/06/17 09:41:56;;;;;;;5.32;3.58;;;29.60;40.80;;;;;;5041564;28;20116;-77
2023/06/17 09:44:24;;;;;;;7.88;2.90;;;29.60;38.40;;;;;;5033553;28;20048;-77
2023/06/17 09:46:50;;;;;;;6.53;3.00;;;29.80;42.30;;;;;;5049901;28;20032;-78
2023/06/17 09:49:23;;;;;;;9.63;3.60;;;29.90;44.60;;;;;;5031977;28;20033;-78
2023/06/17 09:51:51;;;;;;;7.57;3.28;;;30.00;40.30;;;;;;5028858;28;20034;-77
2023/06/17 09:57:42;;;;;;;7.32;3.30;;;30.30;38.90;;;;;;4974174;28;20091;-76
2023/06/17 10:00:10;;;;;;;6.47;3.70;;;30.20;38.30;;;;;;5033143;28;20021;-77
2023/06/17 10:02:38;;;;;;;6.35;3.50;;;30.10;38.20;;;;;;5029638;28;20037;-76
2023/06/17 10:05:04;;;;;;;6.70;3.40;;;30.20;39.20;;;;;;5029315;28;20371;-78
2023/06/17 10:07:30;;;;;;;4.18;2.80;;;30.40;40.30;;;;;;5029862;28;20460;-78
2023/06/17 10:09:57;;;;;;;5.55;2.95;;;30.50;39.50;;;;;;5029666;28;20037;-76
2023/06/17 10:12:24;;;;;;;5.22;3.60;;;30.60;40.70;;;;;;5029292;28;20142;-77
2023/06/17 10:14:50;;;;;;;8.73;3.65;;;30.60;38.70;;;;;;5031772;28;20083;-78
2023/06/17 10:17:20;;;;;;;6.00;3.70;;;30.90;41.90;;;;;;5033518;28;20037;-79
2023/06/17 10:19:47;;;;;;;5.88;3.60;;;31.00;38.80;;;;;;5032622;28;20056;-78
2023/06/17 10:22:19;;;;;;;7.75;4.00;;;31.10;37.90;;;;;;5031371;28;20029;-77
2023/06/17 10:24:47;;;;;;;5.55;3.00;;;30.90;36.90;;;;;;5032646;28;20029;-77
2023/06/17 10:27:12;;;;;;;7.38;3.47;;;30.90;37.30;;;;;;5016484;28;20022;-78
2023/06/17 10:29:43;;;;;;;5.25;3.50;;;31.00;40.20;;;;;;5017395;28;20018;-80
2023/06/17 10:32:20;;;;;;;8.32;3.17;;;31.10;36.90;;;;;;5046178;28;20072;-78
2023/06/17 10:35:11;;;;;;;6.75;2.80;;;31.10;37.60;;;;;;5044175;28;20036;-78
2023/06/17 10:37:42;;;;;;;9.15;3.47;;;31.20;44.80;;;;;;5042128;28;20017;-78
2023/06/17 10:40:27;;;;;;;6.90;3.30;;;31.30;36.60;;;;;;5032738;28;20375;-75
2023/06/17 10:43:00;;;;;;;5.28;3.13;;;31.30;36.30;;;;;;5023871;28;20050;-77
2023/06/17 10:45:29;;;;;;;4.03;2.67;;;31.10;35.70;;;;;;5054483;28;20024;-77
2023/06/17 10:48:17;;;;;;;5.97;3.30;;;31.00;42.80;;;;;;5052806;28;20013;-76
2023/06/17 10:50:46;;;;;;;4.47;3.08;;;31.10;37.30;;;;;;5043878;28;20036;-76
2023/06/17 10:53:16;;;;;;;6.95;3.58;;;31.20;38.50;;;;;;5067486;28;20032;-75
2023/06/17 10:55:42;;;;;;;8.35;3.90;;;31.40;37.60;;;;;;5063182;28;20040;-77
2023/06/17 10:58:09;;;;;;;7.85;3.33;;;31.50;36.70;;;;;;5051522;28;20018;-79
2023/06/17 11:00:34;;;;;;;5.90;3.67;;;31.80;36.70;;;;;;5052092;28;20021;-78
2023/06/17 11:03:00;;;;;;;6.18;2.97;;;32.00;35.40;;;;;;5050582;28;20036;-77
2023/06/17 11:05:26;;;;;;;5.65;3.28;;;32.00;34.80;;;;;;5051641;28;20029;-78
2023/06/17 11:07:52;;;;;;;6.60;3.45;;;31.90;36.30;;;;;;5055001;28;20017;-75
2023/06/17 11:10:24;;;;;;;5.25;3.50;;;31.80;37.20;;;;;;5034859;28;20028;-78
2023/06/17 11:12:50;;;;;;;5.78;2.90;;;31.70;35.70;;;;;;5052741;28;20035;-79
2023/06/17 11:15:16;;;;;;;4.97;3.28;;;31.80;39.10;;;;;;5033997;28;20025;-78
2023/06/17 11:17:42;;;;;;;8.98;3.47;;;31.90;36.20;;;;;;5050459;28;20032;-77
2023/06/17 11:20:10;;;;;;;6.32;3.35;;;32.20;35.20;;;;;;5052453;28;20026;-78
2023/06/17 11:22:38;;;;;;;6.50;3.33;;;32.30;35.00;;;;;;5026922;28;20090;-77
2023/06/17 11:25:04;;;;;;;7.80;3.65;;;32.30;35.10;;;;;;5052034;28;20107;-79
2023/06/17 11:27:30;;;;;;;8.18;3.47;;;32.40;34.40;;;;;;5034498;28;20025;-77
2023/06/17 11:29:56;;;;;;;6.57;3.22;;;32.50;34.40;;;;;;5059622;28;20067;-79
2023/06/17 11:32:22;;;;;;;4.55;2.95;;;32.50;36.60;;;;;;5066203;28;20040;-76
2023/06/17 11:34:50;;;;;;;4.72;2.80;;;32.60;34.20;;;;;;5069120;28;20445;-79
2023/06/17 11:37:16;;;;;;;8.68;3.50;;;32.70;39.30;;;;;;5026584;28;20099;-79
2023/06/17 11:39:42;;;;;;;8.73;3.38;;;32.90;33.70;;;;;;5031886;28;20032;-78
2023/06/17 11:42:09;;;;;;;6.28;3.10;;;32.80;33.40;;;;;;5026581;28;20040;-79
2023/06/17 11:44:35;;;;;;;6.05;3.30;;;32.80;35.70;;;;;;5057801;28;20060;-78
2023/06/17 11:47:06;;;;;;;6.90;3.63;;;32.70;33.50;;;;;;5043935;28;20074;-80
2023/06/17 11:49:32;;;;;;;5.35;2.78;;;32.60;32.90;;;;;;5019818;28;20023;-78
2023/06/17 11:52:08;;;;;;;5.13;3.38;;;32.40;33.40;;;;;;5033141;28;20697;-79
2023/06/17 11:54:35;;;;;;;6.28;3.42;;;32.50;33.50;;;;;;5039034;28;20096;-76
2023/06/17 11:57:03;;;;;;;4.88;3.28;;;32.60;43.50;;;;;;5032689;28;20036;-79
2023/06/17 11:59:35;;;;;;;6.65;2.95;;;32.80;34.30;;;;;;5033130;28;20048;-78
2023/06/17 12:02:02;;;;;;;5.85;3.67;;;32.80;34.60;;;;;;5031510;28;20104;-76
2023/06/17 12:04:30;;;;;;;6.30;2.55;;;32.80;33.60;;;;;;5032526;28;20037;-77
2023/06/17 12:06:56;;;;;;;5.43;2.55;;;32.90;41.30;;;;;;5049834;28;20028;-78
2023/06/17 12:09:22;;;;;;;6.85;2.60;;;32.90;46.30;;;;;;5048072;28;20391;-77
2023/06/17 12:11:48;;;;;;;5.47;3.58;;;33.20;46.30;;;;;;5055562;28;20112;-79
2023/06/17 12:14:14;;;;;;;5.50;3.33;;;33.40;35.60;;;;;;5062121;28;20454;-77
2023/06/17 12:16:43;;;;;;;4.75;3.03;;;33.60;33.50;;;;;;5059719;28;20017;-79
2023/06/17 12:19:37;;;;;;;5.30;3.53;;;33.70;34.00;;;;;;5040924;28;20033;-77
2023/06/17 12:22:12;;;;;;;7.15;3.78;;;33.90;33.60;;;;;;5045418;28;20083;-77
2023/06/17 12:24:38;;;;;;;6.53;3.53;;;34.00;32.90;;;;;;5046099;28;20517;-78
2023/06/17 12:27:11;;;;;;;6.15;2.90;;;34.10;32.30;;;;;;5041926;28;20017;-76
2023/06/17 12:29:37;;;;;;;5.93;3.80;;;34.00;36.80;;;;;;5047213;28;20021;-77
2023/06/17 12:32:03;;;;;;;5.03;3.65;;;33.70;33.80;;;;;;5040035;28;20053;-77
2023/06/17 12:34:28;;;;;;;6.22;3.33;;;33.80;34.00;;;;;;5027502;28;20450;-77
2023/06/17 12:36:54;;;;;;;5.43;3.22;;;33.80;34.00;;;;;;5024386;28;20018;-77
2023/06/17 12:39:20;;;;;;;5.18;3.00;;;33.80;33.30;;;;;;5027624;28;20021;-77
2023/06/17 12:41:46;;;;;;;4.68;2.78;;;33.80;34.70;;;;;;5028379;28;20045;-77
2023/06/17 12:44:13;;;;;;;5.22;2.55;;;33.90;38.50;;;;;;5025204;28;20030;-79
2023/06/17 12:46:41;;;;;;;4.40;2.85;;;34.00;45.40;;;;;;5024745;28;20022;-79
2023/06/17 12:49:06;;;;;;;8.40;3.10;;;34.20;46.30;;;;;;5021939;28;20021;-78
2023/06/17 12:51:34;;;;;;;4.68;2.80;;;34.40;40.30;;;;;;5024619;28;20056;-80
2023/06/17 12:53:59;;;;;;;4.75;3.10;;;34.10;38.60;;;;;;5021511;28;20033;-76
2023/06/17 12:56:26;;;;;;;5.00;3.17;;;34.10;34.00;;;;;;5026517;28;20025;-78
2023/06/17 12:58:52;;;;;;;4.22;2.63;;;34.30;35.50;;;;;;5033064;28;20107;-79
2023/06/17 13:01:17;;;;;;;4.93;2.90;;;34.40;40.60;;;;;;5040744;28;20082;-79
2023/06/17 13:03:43;;;;;;;6.15;3.40;;;34.60;41.90;;;;;;5034687;28;20038;-78
2023/06/17 13:06:08;;;;;;;6.25;3.30;;;34.60;33.30;;;;;;5031702;28;20034;-79